createdAt,value
2018-04-24T00:01:51.352Z,14.50
2018-04-24T00:04:19.631Z,14.40
2018-04-24T00:06:48.636Z,14.40
2018-04-24T00:09:16.896Z,14.40
2018-04-24T00:11:45.903Z,14.50
2018-04-24T00:14:14.165Z,14.50
2018-04-24T00:16:43.211Z,14.40
2018-04-24T00:19:11.506Z,14.40
2018-04-24T00:21:39.749Z,14.50
2018-04-24T00:24:08.104Z,14.50
2018-04-24T00:26:37.142Z,14.60
2018-04-24T00:29:05.400Z,14.50
2018-04-24T00:31:33.708Z,14.60
2018-04-24T00:34:01.946Z,14.60
2018-04-24T00:36:30.249Z,14.60
2018-04-24T00:38:58.485Z,14.70
2018-04-24T00:41:26.778Z,14.70
2018-04-24T00:43:55.016Z,14.70
2018-04-24T00:46:24.044Z,14.80
2018-04-24T00:48:52.322Z,14.80
2018-04-24T00:51:20.577Z,14.80
2018-04-24T00:53:49.624Z,14.70
2018-04-24T00:56:17.934Z,14.70
2018-04-24T00:58:47.723Z,14.70
2018-04-24T01:01:16.006Z,14.70
2018-04-24T01:03:44.295Z,14.70
2018-04-24T01:06:14.078Z,14.60
2018-04-24T01:08:42.377Z,14.60
2018-04-24T01:11:10.613Z,14.50
2018-04-24T01:13:38.872Z,14.40
2018-04-24T01:16:07.125Z,14.40
2018-04-24T01:18:36.192Z,14.30
2018-04-24T01:21:04.429Z,14.30
2018-04-24T01:23:32.729Z,14.30
2018-04-24T01:26:01.008Z,14.20
2018-04-24T01:28:29.274Z,14.10
2018-04-24T01:30:57.524Z,14.00
2018-04-24T01:33:25.766Z,13.90
2018-04-24T01:35:54.061Z,13.90
2018-04-24T01:38:23.064Z,13.80
2018-04-24T01:40:52.097Z,13.80
2018-04-24T01:43:20.385Z,13.80
2018-04-24T01:45:48.639Z,13.70
2018-04-24T01:48:16.887Z,13.70
2018-04-24T01:50:45.909Z,13.70
2018-04-24T01:53:14.195Z,13.60
2018-04-24T01:55:42.494Z,13.60
2018-04-24T01:58:10.779Z,13.70
2018-04-24T02:00:39.051Z,13.60
2018-04-24T02:03:07.334Z,13.60
2018-04-24T02:05:35.614Z,13.50
2018-04-24T02:08:03.913Z,13.50
2018-04-24T02:10:32.139Z,13.40
2018-04-24T02:13:00.481Z,13.40
2018-04-24T02:15:29.522Z,13.40
2018-04-24T02:17:57.820Z,13.40
2018-04-24T02:20:26.105Z,13.30
2018-04-24T02:22:54.360Z,13.30
2018-04-24T02:25:24.232Z,13.30
2018-04-24T02:27:53.277Z,13.20
2018-04-24T02:30:23.087Z,13.20
2018-04-24T02:32:51.379Z,13.20
2018-04-24T02:35:19.853Z,13.20
2018-04-24T02:37:48.131Z,13.20
2018-04-24T02:40:16.449Z,13.20
2018-04-24T02:42:44.706Z,13.10
2018-04-24T02:45:13.018Z,13.10
2018-04-24T02:47:41.273Z,13.10
2018-04-24T02:50:10.336Z,13.10
2018-04-24T02:52:38.610Z,13.00
2018-04-24T02:55:06.917Z,13.00
2018-04-24T02:57:35.931Z,12.90
2018-04-24T03:00:04.209Z,12.90
2018-04-24T03:02:33.205Z,12.90
2018-04-24T03:05:01.523Z,12.80
2018-04-24T03:07:29.760Z,12.80
2018-04-24T03:09:58.789Z,12.80
2018-04-24T03:12:27.029Z,12.80
2018-04-24T03:14:55.325Z,12.70
2018-04-24T03:17:23.570Z,12.70
2018-04-24T03:19:52.589Z,12.60
2018-04-24T03:22:20.848Z,12.60
2018-04-24T03:24:49.132Z,12.60
2018-04-24T03:27:18.241Z,12.60
2018-04-24T03:29:46.532Z,12.50
2018-04-24T03:32:14.829Z,12.60
2018-04-24T03:34:43.107Z,12.60
2018-04-24T03:37:11.368Z,12.60
2018-04-24T03:39:39.610Z,12.60
2018-04-24T03:42:07.895Z,12.60
2018-04-24T03:44:36.474Z,12.60
2018-04-24T03:47:05.482Z,12.60
2018-04-24T03:49:33.785Z,12.50
2018-04-24T03:52:02.022Z,12.50
2018-04-24T03:54:30.327Z,12.50
2018-04-24T03:56:59.242Z,12.40
2018-04-24T03:59:27.542Z,12.40
2018-04-24T04:01:56.597Z,12.30
2018-04-24T04:04:24.866Z,12.30
2018-04-24T04:06:53.151Z,12.20
2018-04-24T04:09:21.398Z,12.20
2018-04-24T04:11:50.411Z,12.10
2018-04-24T04:14:18.705Z,12.10
2018-04-24T04:16:46.981Z,12.10
2018-04-24T04:19:27.197Z,12.10
2018-04-24T04:22:07.943Z,12.10
2018-04-24T04:24:43.812Z,12.00
2018-04-24T04:27:12.832Z,12.00
2018-04-24T04:29:41.081Z,12.00
2018-04-24T04:32:10.188Z,11.90
2018-04-24T04:34:39.229Z,11.90
2018-04-24T04:37:07.644Z,11.90
2018-04-24T04:39:35.889Z,11.80
2018-04-24T04:42:04.180Z,11.90
2018-04-24T04:44:32.411Z,11.80
2018-04-24T04:47:00.716Z,11.90
2018-04-24T04:49:28.994Z,11.90
2018-04-24T04:51:57.287Z,11.90
2018-04-24T04:54:25.628Z,11.90
2018-04-24T04:56:54.657Z,12.00
2018-04-24T04:59:22.899Z,12.00
2018-04-24T05:01:51.151Z,12.00
2018-04-24T05:04:20.212Z,12.10
2018-04-24T05:06:48.449Z,12.10
2018-04-24T05:09:16.724Z,12.10
2018-04-24T05:11:45.016Z,12.10
2018-04-24T05:14:13.525Z,12.20
2018-04-24T05:16:41.806Z,12.20
2018-04-24T05:19:10.097Z,12.30
2018-04-24T05:21:38.381Z,12.30
2018-04-24T05:24:06.650Z,12.50
2018-04-24T05:26:34.921Z,12.50
2018-04-24T05:29:03.167Z,12.60
2018-04-24T05:31:31.597Z,12.80
2018-04-24T05:34:00.642Z,12.90
2018-04-24T05:36:29.226Z,12.90
2018-04-24T05:38:57.479Z,13.00
2018-04-24T05:41:25.732Z,13.00
2018-04-24T05:43:54.783Z,13.20
2018-04-24T05:46:23.087Z,13.20
2018-04-24T05:48:51.365Z,13.30
2018-04-24T05:51:21.198Z,13.40
2018-04-24T05:53:50.236Z,13.50
2018-04-24T05:56:18.526Z,13.50
2018-04-24T05:58:46.784Z,13.50
2018-04-24T06:01:15.051Z,13.60
2018-04-24T06:03:43.325Z,13.70
2018-04-24T06:06:11.616Z,13.80
2018-04-24T06:08:40.487Z,13.80
2018-04-24T06:11:08.699Z,13.90
2018-04-24T06:13:36.960Z,13.90
2018-04-24T06:16:05.242Z,14.00
2018-04-24T06:18:33.495Z,14.00
2018-04-24T06:21:01.751Z,14.10
2018-04-24T06:23:31.771Z,14.20
2018-04-24T06:26:00.766Z,14.10
2018-04-24T06:28:29.868Z,14.10
2018-04-24T06:30:58.113Z,14.10
2018-04-24T06:33:27.860Z,14.20
2018-04-24T06:35:56.140Z,14.20
2018-04-24T06:38:25.858Z,14.30
2018-04-24T06:40:54.124Z,14.30
2018-04-24T06:43:22.369Z,14.40
2018-04-24T06:45:51.484Z,14.50
2018-04-24T06:48:20.491Z,14.60
2018-04-24T06:50:48.748Z,14.60
2018-04-24T06:53:17.759Z,14.80
2018-04-24T06:55:46.783Z,14.90
2018-04-24T06:58:15.101Z,14.90
2018-04-24T07:00:43.492Z,14.90
2018-04-24T07:03:12.700Z,15.10
2018-04-24T07:05:41.760Z,15.10
2018-04-24T07:08:09.996Z,15.10
2018-04-24T07:10:38.306Z,15.20
2018-04-24T07:13:06.547Z,15.20
2018-04-24T07:15:34.801Z,15.30
2018-04-24T07:18:03.832Z,15.40
2018-04-24T07:20:32.063Z,15.40
2018-04-24T07:23:01.095Z,15.60
2018-04-24T07:25:30.096Z,15.60
2018-04-24T07:27:58.397Z,15.60
2018-04-24T07:30:26.668Z,15.70
2018-04-24T07:32:54.999Z,15.70
2018-04-24T07:35:24.776Z,15.80
2018-04-24T07:37:53.090Z,15.80
2018-04-24T07:40:22.912Z,15.80
2018-04-24T07:42:51.190Z,15.90
2018-04-24T07:45:20.199Z,16.00
2018-04-24T07:47:48.486Z,16.00
2018-04-24T07:50:16.791Z,16.00
2018-04-24T07:52:45.087Z,16.10
2018-04-24T07:55:13.919Z,16.10
2018-04-24T07:57:42.197Z,16.20
2018-04-24T08:00:10.455Z,16.30
2018-04-24T08:02:39.509Z,16.60
2018-04-24T08:05:09.352Z,16.60
2018-04-24T08:07:37.642Z,16.60
2018-04-24T08:10:07.848Z,16.70
2018-04-24T08:12:36.154Z,16.60
2018-04-24T08:15:04.443Z,16.80
2018-04-24T08:17:32.746Z,16.80
2018-04-24T08:20:01.023Z,16.90
2018-04-24T08:22:39.116Z,17.00
2018-04-24T08:25:07.982Z,17.00
2018-04-24T08:27:36.279Z,17.10
2018-04-24T08:30:04.591Z,17.10
2018-04-24T08:32:32.879Z,17.20
2018-04-24T08:35:01.889Z,17.10
2018-04-24T08:37:30.910Z,17.20
2018-04-24T08:39:59.219Z,17.20
2018-04-24T08:42:27.460Z,17.30
2018-04-24T08:44:55.712Z,17.40
2018-04-24T08:47:24.781Z,17.40
2018-04-24T08:49:53.028Z,17.40
2018-04-24T08:52:22.055Z,17.50
2018-04-24T08:54:50.358Z,17.60
2018-04-24T08:57:19.564Z,17.80
2018-04-24T08:59:47.805Z,17.80
2018-04-24T09:02:16.086Z,17.90
2018-04-24T09:04:44.404Z,17.90
2018-04-24T09:07:13.454Z,18.10
2018-04-24T09:09:41.746Z,18.10
2018-04-24T09:12:11.493Z,18.20
2018-04-24T09:14:39.806Z,18.20
2018-04-24T09:17:08.086Z,18.30
2018-04-24T09:19:36.370Z,18.40
2018-04-24T09:22:04.699Z,18.40
2018-04-24T09:24:34.484Z,18.30
2018-04-24T09:27:02.931Z,18.20
2018-04-24T09:29:31.095Z,18.30
2018-04-24T09:31:59.400Z,18.30
2018-04-24T09:34:28.611Z,18.30
2018-04-24T09:36:58.378Z,18.20
2018-04-24T09:39:26.653Z,18.30
2018-04-24T09:41:54.995Z,18.30
2018-04-24T09:44:24.046Z,18.20
2018-04-24T09:46:52.299Z,18.20
2018-04-24T09:49:20.575Z,18.30
2018-04-24T09:51:48.883Z,18.30
2018-04-24T09:54:17.173Z,18.30
2018-04-24T09:56:45.556Z,18.30
2018-04-24T09:59:13.774Z,18.30
2018-04-24T10:01:42.783Z,18.50
2018-04-24T10:04:11.070Z,18.40
2018-04-24T10:06:39.346Z,18.50
2018-04-24T10:09:07.603Z,18.50
2018-04-24T10:11:35.848Z,18.60
2018-04-24T10:14:04.121Z,18.70
2018-04-24T10:16:32.365Z,18.80
2018-04-24T10:19:00.670Z,18.90
2018-04-24T10:21:28.951Z,19.00
2018-04-24T10:23:57.232Z,19.10
2018-04-24T10:26:25.534Z,19.20
2018-04-24T10:28:54.536Z,19.30
2018-04-24T10:31:22.850Z,19.30
2018-04-24T10:33:51.125Z,19.40
2018-04-24T10:36:19.415Z,19.30
2018-04-24T10:38:47.690Z,19.30
2018-04-24T10:41:15.946Z,19.30
2018-04-24T10:43:44.187Z,19.30
2018-04-24T10:46:13.254Z,19.30
2018-04-24T10:48:41.535Z,19.30
2018-04-24T10:51:09.812Z,19.40
2018-04-24T10:53:38.115Z,19.50
2018-04-24T10:56:06.417Z,19.50
2018-04-24T10:58:34.664Z,19.60
2018-04-24T11:01:03.686Z,20.00
2018-04-24T11:03:31.989Z,19.90
2018-04-24T11:06:00.276Z,20.20
2018-04-24T11:08:28.561Z,20.40
2018-04-24T11:10:56.808Z,20.60
2018-04-24T11:13:25.067Z,20.70
2018-04-24T11:15:53.311Z,20.90
2018-04-24T11:18:22.348Z,21.10
2018-04-24T11:20:50.629Z,21.10
2018-04-24T11:23:18.923Z,21.20
2018-04-24T11:25:47.155Z,21.10
2018-04-24T11:28:16.220Z,21.00
2018-04-24T11:30:44.511Z,21.00
2018-04-24T11:33:12.749Z,20.80
2018-04-24T11:35:41.004Z,20.90
2018-04-24T11:38:09.408Z,20.90
2018-04-24T11:40:37.659Z,21.00
2018-04-24T11:43:05.954Z,20.90
2018-04-24T11:45:34.340Z,21.00
2018-04-24T11:48:02.619Z,21.00
2018-04-24T11:50:30.912Z,21.10
2018-04-24T11:52:59.146Z,21.10
2018-04-24T11:55:27.447Z,21.20
2018-04-24T11:57:55.724Z,21.10
2018-04-24T12:00:23.976Z,21.10
2018-04-24T12:02:52.230Z,21.30
2018-04-24T12:05:20.501Z,21.40
2018-04-24T12:07:48.752Z,21.50
2018-04-24T12:10:17.060Z,21.70
2018-04-24T12:12:46.078Z,21.90
2018-04-24T12:15:14.334Z,21.80
2018-04-24T12:17:43.353Z,22.10
2018-04-24T12:20:11.639Z,22.10
2018-04-24T12:22:39.894Z,22.20
2018-04-24T12:25:08.163Z,22.30
2018-04-24T12:27:37.182Z,22.40
2018-04-24T12:30:05.430Z,22.40
2018-04-24T12:32:34.521Z,22.60
2018-04-24T12:35:03.531Z,22.80
2018-04-24T12:37:32.588Z,23.00
2018-04-24T12:40:01.622Z,23.00
2018-04-24T12:42:30.681Z,23.50
2018-04-24T12:44:58.919Z,23.40
2018-04-24T12:47:27.198Z,23.60
2018-04-24T12:49:55.516Z,23.80
2018-04-24T12:52:23.747Z,23.90
2018-04-24T12:54:52.009Z,24.10
2018-04-24T12:57:20.299Z,24.20
2018-04-24T12:59:48.551Z,24.20
2018-04-24T13:02:16.799Z,24.20
2018-04-24T13:04:45.180Z,24.00
2018-04-24T13:07:13.365Z,23.90
2018-04-24T13:09:42.462Z,23.80
2018-04-24T13:12:10.746Z,23.70
2018-04-24T13:14:39.897Z,23.60
2018-04-24T13:17:08.148Z,23.50
2018-04-24T13:19:36.449Z,23.50
2018-04-24T13:22:04.687Z,23.40
2018-04-24T13:24:32.986Z,23.30
2018-04-24T13:27:01.295Z,23.30
2018-04-24T13:29:29.595Z,23.50
2018-04-24T13:31:57.878Z,23.70
2018-04-24T13:34:26.917Z,24.00
2018-04-24T13:36:55.209Z,24.00
2018-04-24T13:39:23.465Z,24.20
2018-04-24T13:41:51.764Z,24.40
2018-04-24T13:44:20.004Z,24.50
2018-04-24T13:46:48.255Z,24.60
2018-04-24T13:49:17.271Z,24.90
2018-04-24T13:51:45.569Z,24.90
2018-04-24T13:54:13.821Z,25.00
2018-04-24T13:56:42.858Z,25.30
2018-04-24T13:59:11.097Z,25.30
2018-04-24T14:01:39.383Z,25.30
2018-04-24T14:04:07.691Z,25.40
2018-04-24T14:06:35.940Z,25.50
2018-04-24T14:09:04.231Z,25.50
2018-04-24T14:11:32.526Z,25.50
2018-04-24T14:14:00.770Z,25.30
2018-04-24T14:16:29.030Z,25.10
2018-04-24T14:18:58.095Z,24.50
2018-04-24T14:21:26.426Z,24.40
2018-04-24T14:23:54.643Z,24.20
2018-04-24T14:26:23.268Z,23.90
2018-04-24T14:28:52.757Z,23.60
2018-04-24T14:31:21.762Z,23.60
2018-04-24T14:33:51.429Z,23.70
2018-04-24T14:36:19.664Z,23.60
2018-04-24T14:38:47.974Z,23.70
2018-04-24T14:41:16.216Z,23.70
2018-04-24T14:43:44.517Z,23.60
2018-04-24T14:46:12.766Z,23.60
2018-04-24T14:48:41.821Z,23.70
2018-04-24T14:51:10.120Z,23.70
2018-04-24T14:53:38.416Z,23.70
2018-04-24T14:56:07.458Z,23.70
2018-04-24T14:58:35.726Z,23.70
2018-04-24T15:01:04.000Z,23.70
2018-04-24T15:03:32.291Z,23.90
2018-04-24T15:06:00.602Z,24.10
2018-04-24T15:08:28.881Z,24.20
2018-04-24T15:10:57.943Z,24.30
2018-04-24T15:13:26.230Z,24.30
2018-04-24T15:15:54.485Z,24.40
2018-04-24T15:18:22.754Z,24.50
2018-04-24T15:20:51.148Z,24.50
2018-04-24T15:23:19.407Z,24.30
2018-04-24T15:25:47.694Z,24.30
2018-04-24T15:28:15.990Z,24.20
2018-04-24T15:30:44.249Z,24.20
2018-04-24T15:33:12.529Z,24.00
2018-04-24T15:35:40.830Z,23.90
2018-04-24T15:38:09.097Z,23.70
2018-04-24T15:40:37.357Z,23.60
2018-04-24T15:43:05.616Z,23.50
2018-04-24T15:45:33.892Z,23.50
2018-04-24T15:48:02.276Z,23.40
2018-04-24T15:50:31.248Z,23.20
2018-04-24T15:52:59.515Z,23.20
2018-04-24T15:55:28.553Z,23.10
2018-04-24T15:57:56.804Z,23.10
2018-04-24T16:00:25.047Z,23.10
2018-04-24T16:02:54.145Z,23.10
2018-04-24T16:05:22.425Z,23.10
2018-04-24T16:07:50.748Z,23.10
2018-04-24T16:10:19.035Z,23.10
2018-04-24T16:12:47.322Z,23.10
2018-04-24T16:15:15.596Z,23.10
2018-04-24T16:17:43.868Z,23.10
2018-04-24T16:20:12.174Z,23.00
2018-04-24T16:22:40.406Z,23.00
2018-04-24T16:25:08.688Z,22.90
2018-04-24T16:27:37.089Z,22.90
2018-04-24T16:30:05.424Z,22.90
2018-04-24T16:32:33.632Z,22.90
2018-04-24T16:35:01.912Z,22.90
2018-04-24T16:37:30.205Z,23.00
2018-04-24T16:39:58.512Z,22.90
2018-04-24T16:42:26.737Z,22.90
2018-04-24T16:44:55.031Z,22.80
2018-04-24T16:47:23.302Z,22.70
2018-04-24T16:49:51.575Z,22.60
2018-04-24T16:52:19.825Z,22.60
2018-04-24T16:54:48.084Z,22.60
2018-04-24T16:57:17.171Z,22.40
2018-04-24T16:59:46.221Z,22.40
2018-04-24T17:02:14.476Z,22.40
2018-04-24T17:04:42.776Z,22.30
2018-04-24T17:07:11.024Z,22.20
2018-04-24T17:09:39.285Z,22.10
2018-04-24T17:12:08.294Z,22.00
2018-04-24T17:14:36.586Z,21.90
2018-04-24T17:17:04.886Z,21.80
2018-04-24T17:19:33.133Z,21.80
2018-04-24T17:22:01.412Z,21.70
2018-04-24T17:24:29.693Z,21.60
2018-04-24T17:26:57.945Z,21.60
2018-04-24T17:29:26.982Z,21.40
2018-04-24T17:31:55.238Z,21.40
2018-04-24T17:34:23.516Z,21.30
2018-04-24T17:36:51.866Z,21.20
2018-04-24T17:39:20.887Z,21.00
2018-04-24T17:41:49.166Z,21.10
2018-04-24T17:44:17.460Z,21.00
2018-04-24T17:46:45.715Z,20.90
2018-04-24T17:49:14.015Z,20.90
2018-04-24T17:51:42.295Z,20.80
2018-04-24T17:54:10.547Z,20.70
2018-04-24T17:56:38.800Z,20.70
2018-04-24T17:59:07.850Z,20.40
2018-04-24T18:01:36.084Z,20.40
2018-04-24T18:04:04.352Z,20.30
2018-04-24T18:06:33.990Z,20.10
2018-04-24T18:09:02.302Z,20.10
2018-04-24T18:11:32.135Z,19.90
2018-04-24T18:14:00.372Z,19.90
2018-04-24T18:16:28.667Z,19.80
2018-04-24T18:18:56.941Z,19.60
2018-04-24T18:21:25.325Z,19.40
2018-04-24T18:23:53.559Z,19.20
2018-04-24T18:26:21.813Z,19.20
2018-04-24T18:28:50.932Z,19.00
2018-04-24T18:31:19.185Z,19.00
2018-04-24T18:33:48.238Z,18.80
2018-04-24T18:36:16.548Z,18.70
2018-04-24T18:38:44.793Z,18.50
2018-04-24T18:41:13.077Z,18.40
2018-04-24T18:43:41.332Z,18.20
2018-04-24T18:46:09.617Z,18.10
2018-04-24T18:48:37.876Z,18.00
2018-04-24T18:51:06.152Z,17.80
2018-04-24T18:53:34.412Z,17.60
2018-04-24T18:56:02.703Z,17.50
2018-04-24T18:58:31.209Z,17.40
2018-04-24T19:00:59.498Z,17.30
2018-04-24T19:03:27.791Z,17.20
2018-04-24T19:05:56.837Z,17.00
2018-04-24T19:08:25.137Z,17.00
2018-04-24T19:10:53.442Z,16.80
2018-04-24T19:13:21.719Z,16.70
2018-04-24T19:15:51.518Z,16.60
2018-04-24T19:18:25.424Z,16.50
2018-04-24T19:20:53.708Z,16.50
2018-04-24T19:23:22.004Z,16.40
2018-04-24T19:25:50.323Z,16.30
2018-04-24T19:28:18.589Z,16.30
2018-04-24T19:30:46.859Z,16.20
2018-04-24T19:33:15.122Z,16.10
2018-04-24T19:35:44.210Z,16.00
2018-04-24T19:38:12.447Z,16.00
2018-04-24T19:40:46.444Z,16.00
2018-04-24T19:43:14.616Z,15.90
2018-04-24T19:45:42.907Z,15.80
2018-04-24T19:48:17.056Z,15.80
2018-04-24T19:50:45.391Z,15.70
2018-04-24T19:53:13.663Z,15.60
2018-04-24T19:55:42.100Z,15.60
2018-04-24T19:58:10.409Z,15.50
2018-04-24T20:00:38.688Z,15.40
2018-04-24T20:03:06.990Z,15.40
2018-04-24T20:05:35.284Z,15.20
2018-04-24T20:08:03.581Z,15.20
2018-04-24T20:10:32.633Z,15.20
2018-04-24T20:13:01.615Z,15.10
2018-04-24T20:15:30.766Z,15.10
2018-04-24T20:17:59.090Z,15.10
2018-04-24T20:20:27.369Z,15.10
2018-04-24T20:22:55.631Z,15.00
2018-04-24T20:25:23.913Z,14.90
2018-04-24T20:27:52.239Z,14.80
2018-04-24T20:30:20.517Z,14.80
2018-04-24T20:32:48.805Z,14.70
2018-04-24T20:35:17.056Z,14.60
2018-04-24T20:37:45.298Z,14.50
2018-04-24T20:40:13.595Z,14.50
2018-04-24T20:42:41.881Z,14.40
2018-04-24T20:45:10.201Z,14.30
2018-04-24T20:47:39.256Z,14.10
2018-04-24T20:50:07.520Z,14.10
2018-04-24T20:52:35.772Z,14.00
2018-04-24T20:55:04.077Z,13.90
2018-04-24T20:57:32.324Z,13.90
2018-04-24T21:00:01.346Z,13.80
2018-04-24T21:02:29.590Z,13.80
2018-04-24T21:04:58.937Z,13.70
2018-04-24T21:07:27.183Z,13.70
2018-04-24T21:09:55.478Z,13.70
2018-04-24T21:12:23.721Z,13.60
2018-04-24T21:14:52.803Z,13.50
2018-04-24T21:17:21.818Z,13.50
2018-04-24T21:19:50.875Z,13.50
2018-04-24T21:22:19.178Z,13.50
2018-04-24T21:24:48.176Z,13.60
2018-04-24T21:27:17.220Z,13.60
2018-04-24T21:29:45.472Z,13.60
2018-04-24T21:32:13.775Z,13.60
2018-04-24T21:34:42.058Z,13.60
2018-04-24T21:37:10.319Z,13.60
2018-04-24T21:39:38.617Z,13.60
2018-04-24T21:42:06.929Z,13.60
2018-04-24T21:44:35.947Z,13.50
2018-04-24T21:47:04.252Z,13.50
2018-04-24T21:49:32.491Z,13.60
2018-04-24T21:52:00.740Z,13.50
2018-04-24T21:54:28.991Z,13.50
2018-04-24T21:56:57.296Z,13.50
2018-04-24T21:59:25.566Z,13.40
2018-04-24T22:01:53.823Z,13.40
2018-04-24T22:04:22.073Z,13.40
2018-04-24T22:06:50.315Z,13.40
2018-04-24T22:09:19.375Z,13.30
2018-04-24T22:11:47.652Z,13.30
2018-04-24T22:14:15.915Z,13.30
2018-04-24T22:16:44.208Z,13.20
2018-04-24T22:19:12.460Z,13.20
2018-04-24T22:21:40.724Z,13.20
2018-04-24T22:24:09.019Z,13.20
2018-04-24T22:26:37.300Z,13.10
2018-04-24T22:29:05.579Z,13.00
2018-04-24T22:31:33.859Z,12.90
2018-04-24T22:34:02.108Z,12.80
2018-04-24T22:36:30.363Z,12.80
2018-04-24T22:38:59.423Z,12.70
2018-04-24T22:41:27.962Z,12.70
2018-04-24T22:43:56.973Z,12.50
2018-04-24T22:46:25.313Z,12.50
2018-04-24T22:48:54.364Z,12.50
2018-04-24T22:51:22.607Z,12.40
2018-04-24T22:53:50.898Z,12.40
2018-04-24T22:56:19.192Z,12.40
2018-04-24T22:58:47.471Z,12.40
2018-04-24T23:01:15.721Z,12.50
2018-04-24T23:03:43.997Z,12.50
2018-04-24T23:06:12.249Z,12.40
2018-04-24T23:08:41.287Z,12.40
2018-04-24T23:11:21.552Z,12.40
2018-04-24T23:14:01.781Z,12.40
2018-04-24T23:16:42.058Z,12.30
2018-04-24T23:19:22.147Z,12.20
2018-04-24T23:21:49.928Z,12.20
2018-04-24T23:24:18.970Z,12.10
2018-04-24T23:26:47.262Z,12.10
2018-04-24T23:29:15.507Z,12.10
2018-04-24T23:31:43.797Z,12.10
2018-04-24T23:34:12.030Z,12.00
2018-04-24T23:36:41.073Z,12.00
2018-04-24T23:39:09.342Z,12.00
2018-04-24T23:41:37.647Z,12.00
2018-04-24T23:44:05.917Z,12.00
2018-04-24T23:46:34.228Z,12.00
2018-04-24T23:49:02.575Z,12.00
2018-04-24T23:51:30.820Z,12.00
2018-04-24T23:53:59.071Z,12.00
2018-04-24T23:56:27.310Z,11.90
2018-04-24T23:58:55.564Z,11.80
